createdAt,value
2019-06-08T00:00:27.709Z,91.92
2019-06-08T00:02:57.220Z,91.75
2019-06-08T00:05:26.776Z,91.80
2019-06-08T00:07:56.223Z,91.75
2019-06-08T00:10:26.062Z,91.84
2019-06-08T00:12:55.503Z,91.93
2019-06-08T00:15:24.990Z,91.89
2019-06-08T00:17:54.510Z,91.76
2019-06-08T00:20:24.071Z,91.68
2019-06-08T00:22:53.862Z,91.56
2019-06-08T00:25:24.199Z,91.69
2019-06-08T00:27:53.832Z,91.55
2019-06-08T00:30:24.463Z,91.67
2019-06-08T00:32:53.910Z,91.69
2019-06-08T00:35:23.397Z,91.11
2019-06-08T00:37:53.126Z,91.13
2019-06-08T00:40:23.100Z,91.46
2019-06-08T00:42:52.714Z,91.56
2019-06-08T00:45:23.486Z,91.43
2019-06-08T00:47:53.163Z,91.69
2019-06-08T00:50:22.997Z,92.08
2019-06-08T00:52:52.438Z,91.97
2019-06-08T00:55:21.928Z,92.18
2019-06-08T00:57:51.471Z,92.26
2019-06-08T01:00:22.535Z,91.93
2019-06-08T01:02:52.069Z,91.75
2019-06-08T01:05:23.935Z,91.58
2019-06-08T01:07:53.491Z,91.20
2019-06-08T01:10:23.670Z,91.25
2019-06-08T01:12:53.168Z,91.29
2019-06-08T01:15:29.736Z,90.97
2019-06-08T01:18:03.237Z,90.86
2019-06-08T01:20:27.534Z,90.65
2019-06-08T01:22:57.110Z,90.61
2019-06-08T01:25:27.956Z,90.84
2019-06-08T01:27:57.537Z,90.87
2019-06-08T01:30:28.503Z,90.79
2019-06-08T01:32:58.379Z,90.59
2019-06-08T01:35:28.853Z,90.66
2019-06-08T01:37:58.868Z,90.46
2019-06-08T01:40:29.545Z,90.40
2019-06-08T01:43:00.134Z,90.29
2019-06-08T01:45:33.369Z,90.04
2019-06-08T01:48:18.731Z,90.01
2019-06-08T01:50:36.423Z,89.85
2019-06-08T01:53:06.326Z,89.87
2019-06-08T01:55:35.808Z,89.81
2019-06-08T01:58:06.479Z,89.89
2019-06-08T02:00:41.094Z,89.80
2019-06-08T02:03:07.175Z,89.61
2019-06-08T02:05:37.009Z,89.33
2019-06-08T02:08:06.572Z,89.41
2019-06-08T02:10:36.161Z,89.33
2019-06-08T02:13:08.613Z,89.36
2019-06-08T02:15:37.226Z,89.04
2019-06-08T02:18:07.219Z,89.08
2019-06-08T02:20:36.666Z,88.63
2019-06-08T02:23:06.165Z,88.59
2019-06-08T02:25:35.811Z,88.54
2019-06-08T02:28:05.230Z,88.54
2019-06-08T02:30:38.589Z,88.38
2019-06-08T02:33:06.163Z,88.05
2019-06-08T02:35:37.627Z,87.68
2019-06-08T02:38:07.123Z,87.50
2019-06-08T02:40:36.988Z,87.36
2019-06-08T02:43:07.085Z,86.98
2019-06-08T02:45:38.958Z,86.65
2019-06-08T02:48:08.448Z,86.42
2019-06-08T02:50:49.445Z,86.37
2019-06-08T02:53:19.669Z,86.55
2019-06-08T02:55:50.653Z,86.90
2019-06-08T02:58:20.556Z,86.50
2019-06-08T03:00:51.159Z,86.37
2019-06-08T03:03:20.802Z,86.41
2019-06-08T03:05:51.179Z,86.19
2019-06-08T03:08:21.482Z,86.10
2019-06-08T03:10:53.232Z,86.02
2019-06-08T03:13:23.647Z,85.68
2019-06-08T03:15:53.082Z,85.71
2019-06-08T03:18:22.570Z,85.65
2019-06-08T03:20:52.008Z,85.69
2019-06-08T03:23:21.499Z,85.72
2019-06-08T03:25:53.332Z,85.91
2019-06-08T03:28:22.254Z,85.52
2019-06-08T03:30:54.392Z,85.55
2019-06-08T03:33:22.913Z,85.49
2019-06-08T03:35:57.806Z,85.55
2019-06-08T03:38:23.847Z,85.43
2019-06-08T03:40:53.295Z,85.61
2019-06-08T03:43:22.785Z,85.28
2019-06-08T03:45:52.232Z,85.40
2019-06-08T03:48:21.711Z,85.38
2019-06-08T03:50:51.144Z,85.14
2019-06-08T03:53:20.632Z,84.82
2019-06-08T03:55:50.084Z,84.20
2019-06-08T03:58:20.648Z,84.08
2019-06-08T04:00:50.151Z,83.88
2019-06-08T04:03:19.644Z,83.93
2019-06-08T04:05:50.078Z,83.52
2019-06-08T04:08:19.843Z,83.08
2019-06-08T04:10:50.239Z,83.19
2019-06-08T04:13:19.940Z,83.03
2019-06-08T04:15:50.305Z,82.60
2019-06-08T04:18:19.921Z,81.97
2019-06-08T04:20:51.602Z,81.52
2019-06-08T04:23:21.188Z,81.39
2019-06-08T04:25:50.783Z,81.41
2019-06-08T04:28:20.366Z,80.95
2019-06-08T04:30:50.146Z,80.58
2019-06-08T04:33:19.663Z,80.35
2019-06-08T04:35:50.780Z,80.50
2019-06-08T04:38:21.466Z,79.81
2019-06-08T04:40:50.894Z,79.57
2019-06-08T04:43:20.340Z,79.35
2019-06-08T04:45:50.036Z,79.44
2019-06-08T04:48:19.498Z,78.81
2019-06-08T04:50:49.825Z,78.66
2019-06-08T04:53:20.574Z,78.67
2019-06-08T04:55:50.064Z,79.13
2019-06-08T04:58:20.566Z,78.74
2019-06-08T05:00:50.885Z,78.67
2019-06-08T05:03:20.568Z,78.26
2019-06-08T05:05:50.332Z,78.20
2019-06-08T05:08:20.845Z,78.08
2019-06-08T05:10:50.331Z,77.93
2019-06-08T05:13:20.109Z,77.81
2019-06-08T05:15:50.272Z,77.68
2019-06-08T05:18:19.933Z,77.49
2019-06-08T05:20:51.358Z,77.15
2019-06-08T05:23:20.556Z,76.86
2019-06-08T05:25:50.034Z,76.55
2019-06-08T05:28:19.478Z,76.67
2019-06-08T05:30:49.622Z,76.08
2019-06-08T05:33:19.192Z,75.92
2019-06-08T05:35:49.790Z,76.07
2019-06-08T05:38:19.302Z,76.35
2019-06-08T05:40:49.911Z,75.53
2019-06-08T05:43:20.572Z,75.07
2019-06-08T05:45:50.060Z,74.34
2019-06-08T05:48:20.956Z,73.48
2019-06-08T05:51:03.158Z,73.11
2019-06-08T05:53:21.582Z,72.57
2019-06-08T05:55:51.072Z,72.54
2019-06-08T05:58:20.577Z,71.95
2019-06-08T06:00:50.640Z,70.89
2019-06-08T06:03:20.185Z,70.81
2019-06-08T06:05:50.806Z,70.72
2019-06-08T06:08:20.511Z,70.00
2019-06-08T06:10:51.311Z,68.96
2019-06-08T06:13:20.987Z,68.19
2019-06-08T06:15:51.673Z,67.91
2019-06-08T06:18:21.374Z,67.99
2019-06-08T06:20:51.499Z,67.38
2019-06-08T06:23:21.311Z,66.19
2019-06-08T06:25:51.761Z,66.90
2019-06-08T06:28:21.410Z,67.49
2019-06-08T06:30:52.235Z,67.31
2019-06-08T06:33:21.722Z,67.51
2019-06-08T06:35:52.142Z,67.18
2019-06-08T06:38:21.758Z,66.76
2019-06-08T06:40:52.192Z,66.15
2019-06-08T06:43:22.006Z,65.88
2019-06-08T06:45:52.202Z,66.45
2019-06-08T06:48:23.590Z,65.36
2019-06-08T06:50:53.021Z,65.76
2019-06-08T06:53:22.446Z,65.34
2019-06-08T06:55:53.222Z,65.00
2019-06-08T06:58:23.172Z,64.66
2019-06-08T07:00:53.744Z,64.78
2019-06-08T07:03:23.515Z,64.51
2019-06-08T07:05:54.252Z,64.40
2019-06-08T07:08:23.913Z,64.09
2019-06-08T07:10:53.593Z,64.23
2019-06-08T07:13:23.986Z,63.79
2019-06-08T07:15:57.588Z,63.13
2019-06-08T07:18:24.606Z,63.01
2019-06-08T07:20:54.399Z,62.71
2019-06-08T07:23:23.936Z,62.39
2019-06-08T07:25:54.551Z,61.91
2019-06-08T07:28:24.185Z,60.80
2019-06-08T07:30:54.809Z,59.91
2019-06-08T07:33:24.546Z,59.57
2019-06-08T07:35:55.237Z,58.65
2019-06-08T07:38:24.886Z,58.10
2019-06-08T07:40:58.454Z,57.79
2019-06-08T07:43:25.504Z,56.97
2019-06-08T07:45:56.262Z,56.49
2019-06-08T07:48:25.874Z,56.11
2019-06-08T07:50:56.448Z,55.71
2019-06-08T07:53:27.407Z,54.87
2019-06-08T07:55:57.917Z,54.58
2019-06-08T07:58:27.396Z,54.25
2019-06-08T08:01:04.017Z,54.60
2019-06-08T08:03:28.247Z,53.88
2019-06-08T08:05:58.617Z,53.91
2019-06-08T08:08:28.586Z,53.38
2019-06-08T08:10:59.875Z,51.49
2019-06-08T08:13:29.387Z,52.18
2019-06-08T08:16:00.638Z,51.45
2019-06-08T08:18:30.001Z,51.50
2019-06-08T08:21:09.317Z,51.08
2019-06-08T08:23:31.794Z,51.12
2019-06-08T08:26:01.856Z,49.93
2019-06-08T08:28:31.644Z,51.30
2019-06-08T08:31:01.925Z,50.96
2019-06-08T08:33:31.542Z,52.39
2019-06-08T08:36:01.917Z,52.21
2019-06-08T08:38:31.651Z,50.62
2019-06-08T08:41:07.396Z,49.67
2019-06-08T08:43:32.269Z,48.65
2019-06-08T08:46:02.064Z,48.10
2019-06-08T08:48:32.643Z,47.28
2019-06-08T08:51:03.596Z,46.47
2019-06-08T08:53:33.433Z,46.36
2019-06-08T08:56:02.931Z,44.83
2019-06-08T08:58:32.803Z,45.34
2019-06-08T09:01:03.703Z,45.08
2019-06-08T09:03:34.421Z,45.30
2019-06-08T09:06:04.190Z,45.23
2019-06-08T09:08:34.138Z,45.25
2019-06-08T09:11:04.391Z,44.88
2019-06-08T09:13:37.577Z,44.04
2019-06-08T09:16:08.099Z,44.29
2019-06-08T09:18:37.879Z,43.54
2019-06-08T09:21:08.422Z,43.24
2019-06-08T09:23:38.181Z,42.53
2019-06-08T09:26:12.386Z,41.89
2019-06-08T09:28:39.374Z,42.27
2019-06-08T09:31:12.705Z,41.96
2019-06-08T09:33:40.115Z,40.72
2019-06-08T09:36:09.599Z,41.17
2019-06-08T09:38:39.079Z,41.76
2019-06-08T09:41:09.114Z,41.23
2019-06-08T09:43:39.002Z,41.68
2019-06-08T09:46:09.391Z,41.53
2019-06-08T09:48:39.300Z,41.55
2019-06-08T09:51:09.314Z,41.57
2019-06-08T09:53:41.571Z,41.48
2019-06-08T09:56:11.423Z,41.27
2019-06-08T09:58:40.934Z,41.67
2019-06-08T10:01:12.216Z,40.65
2019-06-08T10:03:42.802Z,40.34
2019-06-08T10:06:12.854Z,40.12
2019-06-08T10:08:43.502Z,40.22
2019-06-08T10:11:13.117Z,40.23
2019-06-08T10:13:43.506Z,39.54
2019-06-08T10:16:13.398Z,38.89
2019-06-08T10:18:43.238Z,39.38
2019-06-08T10:21:13.067Z,39.34
2019-06-08T10:23:42.558Z,38.99
2019-06-08T10:26:12.405Z,38.68
2019-06-08T10:28:41.853Z,38.03
2019-06-08T10:31:11.361Z,37.55
2019-06-08T10:33:41.126Z,37.66
2019-06-08T10:36:12.937Z,37.48
2019-06-08T10:38:42.051Z,37.66
2019-06-08T10:41:17.832Z,38.02
2019-06-08T10:43:43.214Z,38.08
2019-06-08T10:46:16.832Z,37.83
2019-06-08T10:48:43.909Z,38.17
2019-06-08T10:51:13.475Z,38.58
2019-06-08T10:53:49.005Z,38.68
2019-06-08T10:56:14.270Z,38.73
2019-06-08T10:58:43.843Z,38.49
2019-06-08T11:01:13.612Z,37.66
2019-06-08T11:03:43.361Z,37.20
2019-06-08T11:06:13.669Z,37.07
2019-06-08T11:08:43.512Z,36.59
2019-06-08T11:11:13.213Z,36.25
2019-06-08T11:13:42.782Z,37.12
2019-06-08T11:16:13.401Z,37.21
2019-06-08T11:18:43.433Z,36.72
2019-06-08T11:21:13.258Z,37.30
2019-06-08T11:23:42.801Z,37.73
2019-06-08T11:26:19.832Z,37.72
2019-06-08T11:28:43.475Z,37.40
2019-06-08T11:31:15.968Z,37.48
2019-06-08T11:33:44.814Z,36.78
2019-06-08T11:36:15.076Z,37.59
2019-06-08T11:38:44.921Z,37.09
2019-06-08T11:41:14.468Z,37.16
2019-06-08T11:43:43.905Z,36.45
2019-06-08T11:46:13.470Z,36.17
2019-06-08T11:48:43.962Z,35.91
2019-06-08T11:51:13.514Z,36.00
2019-06-08T11:53:43.345Z,35.83
2019-06-08T11:56:13.587Z,36.91
2019-06-08T11:58:43.700Z,36.19
2019-06-08T12:01:15.269Z,35.40
2019-06-08T12:03:44.420Z,35.49
2019-06-08T12:06:14.597Z,36.23
2019-06-08T12:08:44.586Z,35.77
2019-06-08T12:11:18.776Z,36.60
2019-06-08T12:13:47.354Z,36.01
2019-06-08T12:16:21.449Z,35.99
2019-06-08T12:18:49.360Z,35.58
2019-06-08T12:21:19.021Z,35.57
2019-06-08T12:23:48.467Z,36.10
2019-06-08T12:26:17.973Z,36.88
2019-06-08T12:28:48.601Z,37.15
2019-06-08T12:31:22.276Z,37.58
2019-06-08T12:33:51.296Z,36.86
2019-06-08T12:36:21.059Z,36.50
2019-06-08T12:38:50.677Z,36.12
2019-06-08T12:41:20.180Z,36.01
2019-06-08T12:43:49.637Z,35.64
2019-06-08T12:46:21.396Z,35.63
2019-06-08T12:48:50.299Z,35.03
2019-06-08T12:51:21.451Z,35.26
2019-06-08T12:53:51.011Z,35.12
2019-06-08T12:56:23.952Z,36.05
2019-06-08T12:58:51.708Z,34.47
2019-06-08T13:01:21.157Z,34.57
2019-06-08T13:03:50.643Z,35.41
2019-06-08T13:06:20.133Z,35.88
2019-06-08T13:08:49.679Z,36.04
2019-06-08T13:11:21.198Z,35.81
2019-06-08T13:13:51.614Z,36.30
2019-06-08T13:16:24.177Z,36.66
2019-06-08T13:18:52.254Z,36.95
2019-06-08T13:21:34.217Z,37.07
2019-06-08T13:23:53.824Z,36.85
2019-06-08T13:26:27.877Z,37.14
2019-06-08T13:28:54.449Z,36.54
2019-06-08T13:31:24.758Z,36.47
2019-06-08T13:33:55.432Z,36.70
2019-06-08T13:36:27.030Z,36.95
2019-06-08T13:38:56.431Z,37.70
2019-06-08T13:41:29.120Z,38.25
2019-06-08T13:43:58.266Z,38.27
2019-06-08T13:46:28.361Z,38.73
2019-06-08T13:48:58.552Z,38.47
2019-06-08T13:51:28.648Z,37.62
2019-06-08T13:53:58.360Z,38.12
2019-06-08T13:56:28.521Z,36.87
2019-06-08T13:58:58.227Z,37.77
2019-06-08T14:01:30.868Z,37.51
2019-06-08T14:03:58.921Z,37.69
2019-06-08T14:06:28.590Z,37.94
2019-06-08T14:08:58.461Z,37.33
2019-06-08T14:11:28.244Z,37.98
2019-06-08T14:14:00.869Z,37.70
2019-06-08T14:16:29.790Z,36.74
2019-06-08T14:18:59.695Z,36.33
2019-06-08T14:21:37.731Z,36.49
2019-06-08T14:24:00.322Z,37.46
2019-06-08T14:26:29.773Z,37.30
2019-06-08T14:29:01.576Z,36.50
2019-06-08T14:31:32.155Z,37.38
2019-06-08T14:34:01.815Z,37.52
2019-06-08T14:36:31.264Z,37.33
2019-06-08T14:39:02.444Z,37.16
2019-06-08T14:41:33.695Z,37.39
2019-06-08T14:44:03.178Z,37.39
2019-06-08T14:46:32.898Z,37.04
2019-06-08T14:49:02.468Z,36.57
2019-06-08T14:51:51.750Z,36.77
2019-06-08T14:54:25.108Z,37.27
2019-06-08T14:56:53.770Z,36.84
2019-06-08T14:59:23.865Z,37.40
2019-06-08T15:01:53.690Z,37.52
2019-06-08T15:04:27.027Z,36.79
2019-06-08T15:06:54.390Z,37.18
2019-06-08T15:09:23.880Z,37.46
2019-06-08T15:11:53.323Z,38.07
2019-06-08T15:14:23.671Z,37.53
2019-06-08T15:16:53.150Z,37.96
2019-06-08T15:19:22.630Z,37.63
2019-06-08T15:21:52.123Z,37.09
2019-06-08T15:24:22.626Z,37.17
2019-06-08T15:26:52.184Z,36.98
2019-06-08T15:29:22.792Z,37.21
2019-06-08T15:31:52.783Z,37.39
2019-06-08T15:34:23.202Z,37.73
2019-06-08T15:36:52.862Z,38.12
2019-06-08T15:39:23.398Z,37.56
2019-06-08T15:41:53.074Z,38.09
2019-06-08T15:44:24.254Z,37.96
2019-06-08T15:46:54.072Z,38.02
2019-06-08T15:49:24.483Z,37.37
2019-06-08T15:51:53.976Z,37.52
2019-06-08T15:54:24.634Z,37.57
2019-06-08T15:56:55.259Z,37.49
2019-06-08T15:59:25.080Z,38.09
2019-06-08T16:01:55.640Z,38.86
2019-06-08T16:04:25.725Z,38.71
2019-06-08T16:06:55.268Z,38.36
2019-06-08T16:09:25.867Z,38.61
2019-06-08T16:11:55.493Z,38.27
2019-06-08T16:14:25.002Z,38.10
2019-06-08T16:16:54.570Z,37.22
2019-06-08T16:19:25.379Z,36.00
2019-06-08T16:21:55.303Z,35.22
2019-06-08T16:24:25.778Z,35.25
2019-06-08T16:26:55.337Z,35.53
2019-06-08T16:29:24.785Z,36.08
2019-06-08T16:31:54.275Z,35.31
2019-06-08T16:34:23.726Z,34.70
2019-06-08T16:36:53.246Z,34.53
2019-06-08T16:39:22.704Z,34.61
2019-06-08T16:41:52.211Z,34.03
2019-06-08T16:44:21.683Z,33.37
2019-06-08T16:46:51.193Z,32.50
2019-06-08T16:49:20.617Z,32.56
2019-06-08T16:51:50.180Z,31.95
2019-06-08T16:54:19.617Z,31.07
2019-06-08T16:56:49.173Z,29.34
2019-06-08T16:59:18.739Z,27.28
2019-06-08T17:01:48.302Z,26.11
2019-06-08T17:04:17.742Z,24.44
2019-06-08T17:06:47.308Z,23.56
2019-06-08T17:09:16.786Z,22.85
2019-06-08T17:11:46.329Z,22.95
2019-06-08T17:14:15.770Z,24.58
2019-06-08T17:16:45.269Z,25.59
2019-06-08T17:19:15.032Z,25.31
2019-06-08T17:21:44.521Z,26.27
2019-06-08T17:24:13.984Z,27.79
2019-06-08T17:26:43.469Z,28.51
2019-06-08T17:29:12.937Z,29.98
2019-06-08T17:31:42.421Z,31.16
2019-06-08T17:34:11.907Z,32.24
2019-06-08T17:36:42.715Z,33.19
2019-06-08T17:39:12.402Z,34.04
2019-06-08T17:41:42.667Z,35.09
2019-06-08T17:44:12.260Z,35.35
2019-06-08T17:46:43.106Z,36.29
2019-06-08T17:49:12.693Z,36.21
2019-06-08T17:51:44.034Z,36.84
2019-06-08T17:54:18.752Z,37.06
2019-06-08T17:56:48.321Z,37.53
2019-06-08T17:59:17.812Z,37.44
2019-06-08T18:01:47.634Z,37.73
2019-06-08T18:04:17.564Z,38.46
2019-06-08T18:06:47.399Z,38.28
2019-06-08T18:09:17.797Z,38.65
2019-06-08T18:11:48.059Z,38.65
2019-06-08T18:14:18.163Z,39.13
2019-06-08T18:16:49.196Z,38.97
2019-06-08T18:19:28.493Z,39.06
2019-06-08T18:22:04.200Z,39.58
2019-06-08T18:24:29.818Z,39.40
2019-06-08T18:26:59.407Z,39.47
2019-06-08T18:29:29.854Z,39.82
2019-06-08T18:31:59.405Z,39.94
2019-06-08T18:34:29.082Z,40.46
2019-06-08T18:36:58.658Z,40.39
2019-06-08T18:39:30.048Z,40.73
2019-06-08T18:41:59.550Z,40.75
2019-06-08T18:44:29.527Z,40.93
2019-06-08T18:46:59.038Z,41.13
2019-06-08T18:49:29.135Z,41.40
2019-06-08T18:51:58.819Z,41.43
2019-06-08T18:54:28.356Z,41.62
2019-06-08T18:56:58.878Z,42.06
2019-06-08T18:59:28.728Z,42.08
2019-06-08T19:01:58.525Z,42.39
2019-06-08T19:04:30.928Z,42.70
2019-06-08T19:07:02.010Z,42.73
2019-06-08T19:09:32.729Z,42.98
2019-06-08T19:12:02.209Z,42.87
2019-06-08T19:14:31.689Z,43.01
2019-06-08T19:17:01.678Z,43.21
2019-06-08T19:19:31.670Z,43.28
2019-06-08T19:22:01.298Z,43.41
2019-06-08T19:24:30.737Z,43.20
2019-06-08T19:27:00.219Z,43.37
2019-06-08T19:29:30.019Z,43.28
2019-06-08T19:32:00.441Z,43.33
2019-06-08T19:34:33.280Z,43.29
2019-06-08T19:37:01.773Z,43.46
2019-06-08T19:39:31.261Z,43.85
2019-06-08T19:42:00.752Z,43.79
2019-06-08T19:44:30.671Z,44.03
2019-06-08T19:47:01.269Z,44.49
2019-06-08T19:49:31.111Z,44.75
2019-06-08T19:52:00.588Z,44.96
2019-06-08T19:54:30.086Z,45.17
2019-06-08T19:56:59.534Z,45.58
2019-06-08T19:59:29.034Z,45.82
2019-06-08T20:01:59.885Z,46.53
2019-06-08T20:04:29.553Z,46.72
2019-06-08T20:07:00.707Z,47.23
2019-06-08T20:09:30.557Z,47.67
2019-06-08T20:12:00.388Z,47.93
2019-06-08T20:14:29.982Z,48.43
2019-06-08T20:17:00.734Z,48.48
2019-06-08T20:19:30.226Z,48.72
2019-06-08T20:21:59.682Z,49.31
2019-06-08T20:24:29.187Z,49.18
2019-06-08T20:26:58.647Z,49.52
2019-06-08T20:29:28.550Z,49.60
2019-06-08T20:31:59.116Z,50.01
2019-06-08T20:34:28.572Z,49.91
2019-06-08T20:37:01.325Z,49.98
2019-06-08T20:39:29.334Z,50.32
2019-06-08T20:41:58.941Z,50.54
2019-06-08T20:44:30.322Z,50.36
2019-06-08T20:46:59.643Z,50.56
2019-06-08T20:49:29.079Z,50.78
2019-06-08T20:52:00.325Z,50.39
2019-06-08T20:54:29.726Z,50.71
2019-06-08T20:56:59.213Z,50.68
2019-06-08T20:59:33.230Z,51.03
2019-06-08T21:01:59.977Z,50.86
2019-06-08T21:04:29.448Z,51.32
2019-06-08T21:06:58.941Z,51.13
2019-06-08T21:09:28.381Z,51.21
2019-06-08T21:11:58.674Z,51.30
2019-06-08T21:14:28.391Z,51.44
2019-06-08T21:16:58.643Z,51.61
2019-06-08T21:19:29.265Z,51.74
2019-06-08T21:21:59.455Z,52.00
2019-06-08T21:24:30.564Z,51.81
2019-06-08T21:27:00.922Z,52.04
2019-06-08T21:29:47.091Z,52.35
2019-06-08T21:32:02.690Z,52.39
2019-06-08T21:34:32.428Z,52.24
2019-06-08T21:37:01.923Z,52.46
2019-06-08T21:39:31.703Z,52.63
2019-06-08T21:42:03.153Z,52.74
2019-06-08T21:44:32.607Z,52.74
2019-06-08T21:47:02.092Z,52.91
2019-06-08T21:49:31.533Z,52.98
2019-06-08T21:52:01.382Z,52.80
2019-06-08T21:54:30.938Z,52.79
2019-06-08T21:57:01.100Z,52.79
2019-06-08T21:59:32.019Z,53.02
2019-06-08T22:02:03.914Z,53.29
2019-06-08T22:04:32.847Z,53.17
2019-06-08T22:07:03.325Z,53.50
2019-06-08T22:09:33.892Z,53.31
2019-06-08T22:12:03.452Z,53.30
2019-06-08T22:14:32.882Z,53.52
2019-06-08T22:17:03.268Z,53.60
2019-06-08T22:19:33.241Z,53.51
2019-06-08T22:22:03.937Z,53.91
2019-06-08T22:24:33.420Z,53.64
2019-06-08T22:27:03.702Z,53.94
2019-06-08T22:29:33.222Z,53.74
2019-06-08T22:32:03.939Z,53.43
2019-06-08T22:34:33.750Z,53.48
2019-06-08T22:37:03.258Z,53.44
2019-06-08T22:39:32.703Z,53.52
2019-06-08T22:42:02.146Z,53.40
2019-06-08T22:44:31.680Z,53.36
2019-06-08T22:47:01.918Z,53.33
2019-06-08T22:49:32.290Z,53.51
2019-06-08T22:52:03.028Z,53.63
2019-06-08T22:54:32.905Z,53.38
2019-06-08T22:57:04.657Z,53.59
2019-06-08T22:59:33.927Z,53.37
2019-06-08T23:02:05.665Z,53.66
2019-06-08T23:04:34.707Z,53.80
2019-06-08T23:07:06.228Z,53.57
2019-06-08T23:09:37.318Z,53.80
2019-06-08T23:12:09.310Z,53.91
2019-06-08T23:14:37.776Z,53.90
2019-06-08T23:17:08.613Z,53.92
2019-06-08T23:19:38.239Z,53.95
2019-06-08T23:22:08.476Z,54.00
2019-06-08T23:24:38.355Z,54.14
2019-06-08T23:27:07.989Z,54.09
2019-06-08T23:29:38.158Z,54.28
2019-06-08T23:32:11.585Z,54.37
2019-06-08T23:34:40.232Z,54.43
2019-06-08T23:37:12.660Z,54.51
2019-06-08T23:39:40.851Z,54.71
2019-06-08T23:42:10.720Z,54.86
2019-06-08T23:44:40.505Z,54.96
2019-06-08T23:47:09.995Z,54.86
2019-06-08T23:49:39.471Z,55.11
2019-06-08T23:52:10.454Z,55.29
2019-06-08T23:54:40.172Z,55.39
2019-06-08T23:57:11.158Z,55.19
2019-06-08T23:59:40.972Z,55.52
